Time;durP1;ratioP1;P1;durP2;ratioP2;P2;SDS_P1;SDS_P2;PMS_P1;PMS_P2;Temp;Humidity;BMP_temperature;BMP_pressure;BME280_temperature;BME280_humidity;BME280_pressure;Samples;Min_cycle;Max_cycle;Signal;HPM_P1;HPM_P2
2020/12/12 00:00:29;;;;;;;;;;;6.70;81.20;;;;;;4970790;28;117333;-84
2020/12/12 00:02:55;;;;;;;;;;;6.70;81.40;;;;;;4969981;28;117712;-84
2020/12/12 00:05:21;;;;;;;;;;;6.70;81.40;;;;;;4953694;28;117463;-84
2020/12/12 00:07:46;;;;;;;;;;;6.70;81.10;;;;;;4953259;28;119859;-84
2020/12/12 00:10:17;;;;;;;;;;;6.70;81.30;;;;;;4953551;28;117807;-83
2020/12/12 00:12:45;;;;;;;;;;;6.70;81.30;;;;;;4953116;28;117554;-84
2020/12/12 00:15:15;;;;;;;;;;;6.70;81.20;;;;;;4953531;28;118708;-84
2020/12/12 00:17:45;;;;;;;;;;;6.70;81.30;;;;;;4952877;28;117670;-84
2020/12/12 00:20:14;;;;;;;;;;;6.70;81.30;;;;;;4954391;28;117662;-84
2020/12/12 00:22:43;;;;;;;;;;;6.70;81.40;;;;;;4970642;28;117892;-84
2020/12/12 00:25:09;;;;;;;;;;;6.70;81.20;;;;;;4952672;28;119396;-84
2020/12/12 00:27:51;;;;;;;;;;;6.70;81.20;;;;;;4952950;28;117602;-84
2020/12/12 00:30:33;;;;;;;;;;;6.70;81.30;;;;;;4972610;28;117388;-83
2020/12/12 00:32:59;;;;;;;;;;;6.70;81.10;;;;;;4954204;28;117949;-84
2020/12/12 00:35:29;;;;;;;;;;;6.70;81.00;;;;;;4955193;28;117811;-84
2020/12/12 00:38:18;;;;;;;;;;;6.70;81.10;;;;;;4968432;28;117646;-84
2020/12/12 00:40:46;;;;;;;;;;;6.70;81.30;;;;;;4969412;28;117773;-83
2020/12/12 00:43:19;;;;;;;;;;;6.70;81.10;;;;;;4971047;28;117543;-83
2020/12/12 00:45:51;;;;;;;;;;;6.70;81.20;;;;;;4953110;28;119575;-83
2020/12/12 00:48:18;;;;;;;;;;;6.70;81.30;;;;;;4952955;28;117393;-83
2020/12/12 00:50:50;;;;;;;;;;;6.70;81.20;;;;;;4970387;28;117279;-83
2020/12/12 00:53:19;;;;;;;;;;;6.70;81.40;;;;;;4953315;28;117340;-83
2020/12/12 00:55:45;;;;;;;;;;;6.70;81.20;;;;;;4967825;28;119534;-83
2020/12/12 00:58:17;;;;;;;;;;;6.70;81.40;;;;;;4952330;28;118222;-83
2020/12/12 01:00:49;;;;;;;;;;;6.70;81.30;;;;;;4968907;28;117323;-83
2020/12/12 01:03:21;;;;;;;;;;;6.70;81.40;;;;;;4969116;28;117844;-83
2020/12/12 01:05:56;;;;;;;;;;;6.70;81.20;;;;;;4966030;28;117732;-83
2020/12/12 01:08:24;;;;;;;;;;;6.70;81.30;;;;;;4968672;28;117660;-83
2020/12/12 01:10:54;;;;;;;;;;;6.70;81.30;;;;;;4953801;28;117455;-84
2020/12/12 01:13:30;;;;;;;;;;;6.70;81.50;;;;;;4953982;28;117320;-84
2020/12/12 01:16:28;;;;;;;;;;;6.70;81.30;;;;;;4986681;28;117624;-84
2020/12/12 01:18:56;;;;;;;;;;;6.70;81.40;;;;;;4983272;28;117724;-84
2020/12/12 01:21:32;;;;;;;;;;;6.70;81.30;;;;;;4950630;28;117362;-84
2020/12/12 01:24:19;;;;;;;;;;;6.70;81.50;;;;;;4969595;28;117418;-84
2020/12/12 01:26:55;;;;;;;;;;;6.70;81.40;;;;;;4962638;28;118828;-83
2020/12/12 01:29:22;;;;;;;;;;;6.70;81.40;;;;;;4967701;28;118935;-83
2020/12/12 01:31:52;;;;;;;;;;;6.70;81.40;;;;;;4951060;28;117819;-84
2020/12/12 01:34:20;;;;;;;;;;;6.70;81.40;;;;;;4949859;28;117411;-84
2020/12/12 01:36:52;;;;;;;;;;;6.70;81.50;;;;;;4952643;28;119548;-84
2020/12/12 01:39:41;;;;;;;;;;;6.70;81.30;;;;;;4971372;28;117820;-84
2020/12/12 01:42:19;;;;;;;;;;;6.70;81.30;;;;;;4953026;28;117805;-84
2020/12/12 01:44:45;;;;;;;;;;;6.70;81.40;;;;;;4952427;28;117868;-84
2020/12/12 01:47:10;;;;;;;;;;;6.70;81.40;;;;;;4967929;28;118602;-84
2020/12/12 01:49:58;;;;;;;;;;;6.70;81.30;;;;;;4970332;28;117848;-84
2020/12/12 01:52:23;;;;;;;;;;;6.70;81.40;;;;;;4952858;28;117223;-84
2020/12/12 01:54:49;;;;;;;;;;;6.70;81.40;;;;;;4951937;28;117715;-84
2020/12/12 01:57:22;;;;;;;;;;;6.70;81.40;;;;;;4949169;28;117697;-84
2020/12/12 01:59:53;;;;;;;;;;;6.70;81.30;;;;;;4951644;28;118726;-83
2020/12/12 02:02:24;;;;;;;;;;;6.70;81.30;;;;;;4968079;28;117563;-83
2020/12/12 02:05:38;;;;;;;;;;;6.70;81.20;;;;;;4947097;28;117224;-83
2020/12/12 02:08:21;;;;;;;;;;;6.80;81.20;;;;;;4967514;28;119739;-83
2020/12/12 02:10:51;;;;;;;;;;;6.70;81.20;;;;;;4952197;28;117502;-83
2020/12/12 02:13:17;;;;;;;;;;;6.70;81.20;;;;;;4952859;28;117715;-84
2020/12/12 02:15:44;;;;;;;;;;;6.70;81.10;;;;;;4952389;28;117474;-84
2020/12/12 02:18:24;;;;;;;;;;;6.80;81.30;;;;;;4965838;28;120830;-83
2020/12/12 02:20:55;;;;;;;;;;;6.70;81.20;;;;;;4967217;28;117832;-84
2020/12/12 02:23:26;;;;;;;;;;;6.70;81.30;;;;;;4983710;28;117473;-84
2020/12/12 02:26:00;;;;;;;;;;;6.70;81.30;;;;;;4965785;28;117753;-84
2020/12/12 02:28:51;;;;;;;;;;;6.70;81.20;;;;;;4966868;28;118702;-83
2020/12/12 02:31:13;;;;;;;;;;;6.70;81.30;;;;;;4970216;28;117765;-83
2020/12/12 02:33:40;;;;;;;;;;;6.70;81.40;;;;;;4968187;28;117491;-84
2020/12/12 02:36:07;;;;;;;;;;;6.70;81.40;;;;;;4951688;28;117770;-84
2020/12/12 02:38:40;;;;;;;;;;;6.70;81.40;;;;;;4967449;28;117780;-84
2020/12/12 02:41:26;;;;;;;;;;;6.70;81.30;;;;;;4984382;28;117923;-84
2020/12/12 02:43:51;;;;;;;;;;;6.80;81.30;;;;;;4962797;28;117544;-83
2020/12/12 02:46:20;;;;;;;;;;;6.70;81.30;;;;;;4951228;28;117391;-84
2020/12/12 02:48:50;;;;;;;;;;;6.70;81.40;;;;;;4948674;28;118376;-84
2020/12/12 02:51:24;;;;;;;;;;;6.80;81.40;;;;;;4967143;28;118139;-84
2020/12/12 02:53:56;;;;;;;;;;;6.70;81.40;;;;;;4964177;28;117640;-83
2020/12/12 02:56:33;;;;;;;;;;;6.80;81.30;;;;;;4969292;28;117813;-84
2020/12/12 02:59:39;;;;;;;;;;;6.70;81.40;;;;;;4984851;28;117545;-83
2020/12/12 03:02:08;;;;;;;;;;;6.70;81.40;;;;;;4963328;28;118260;-84
2020/12/12 03:04:55;;;;;;;;;;;6.70;81.30;;;;;;4985478;28;117425;-84
2020/12/12 03:07:41;;;;;;;;;;;6.80;81.40;;;;;;4983482;28;117440;-84
2020/12/12 03:10:08;;;;;;;;;;;6.80;81.40;;;;;;4946811;28;118827;-83
2020/12/12 03:12:37;;;;;;;;;;;6.70;81.30;;;;;;4949955;28;118920;-83
2020/12/12 03:15:22;;;;;;;;;;;6.80;81.40;;;;;;4950243;28;117791;-84
2020/12/12 03:18:11;;;;;;;;;;;6.80;81.30;;;;;;4962344;28;117654;-84
2020/12/12 03:20:39;;;;;;;;;;;6.80;81.60;;;;;;4947703;28;119459;-83
2020/12/12 03:23:06;;;;;;;;;;;6.70;81.40;;;;;;4950544;28;118543;-84
2020/12/12 03:25:47;;;;;;;;;;;6.80;81.30;;;;;;4968021;28;117434;-84
2020/12/12 03:28:13;;;;;;;;;;;6.80;81.50;;;;;;4965119;28;118074;-84
2020/12/12 03:30:48;;;;;;;;;;;6.80;81.50;;;;;;4950699;28;117598;-84
2020/12/12 03:33:24;;;;;;;;;;;6.80;81.30;;;;;;4966728;28;117670;-84
2020/12/12 03:35:54;;;;;;;;;;;6.80;81.50;;;;;;4967842;28;117491;-84
2020/12/12 03:38:47;;;;;;;;;;;6.80;81.40;;;;;;4970176;28;117335;-83
2020/12/12 03:41:14;;;;;;;;;;;6.80;81.50;;;;;;4944265;28;120924;-84
2020/12/12 03:43:42;;;;;;;;;;;6.80;81.50;;;;;;4948377;28;117950;-84
2020/12/12 03:46:14;;;;;;;;;;;6.80;81.40;;;;;;4950875;28;117645;-84
2020/12/12 03:48:59;;;;;;;;;;;6.80;81.50;;;;;;4985165;28;117820;-84
2020/12/12 03:51:28;;;;;;;;;;;6.80;81.30;;;;;;4950327;28;117690;-84
2020/12/12 03:53:57;;;;;;;;;;;6.80;81.40;;;;;;4966279;28;118817;-84
2020/12/12 03:56:30;;;;;;;;;;;6.80;81.40;;;;;;4951176;28;117369;-84
2020/12/12 03:59:00;;;;;;;;;;;6.80;81.40;;;;;;4967230;28;117900;-84
2020/12/12 04:01:32;;;;;;;;;;;6.80;81.40;;;;;;4950684;28;120564;-84
2020/12/12 04:04:01;;;;;;;;;;;6.80;81.40;;;;;;4959183;28;119228;-84
2020/12/12 04:06:33;;;;;;;;;;;6.80;81.60;;;;;;4951144;28;117434;-84
2020/12/12 04:08:59;;;;;;;;;;;6.80;81.50;;;;;;4981858;28;117324;-84
2020/12/12 04:11:26;;;;;;;;;;;6.80;81.40;;;;;;4925328;28;120176;-84
2020/12/12 04:13:54;;;;;;;;;;;6.80;81.50;;;;;;4943535;28;118817;-84
2020/12/12 04:16:21;;;;;;;;;;;6.80;81.50;;;;;;4951115;28;117565;-84
2020/12/12 04:18:47;;;;;;;;;;;6.80;81.40;;;;;;4949706;28;117416;-84
2020/12/12 04:21:24;;;;;;;;;;;6.80;81.50;;;;;;4967518;28;118605;-84
2020/12/12 04:23:51;;;;;;;;;;;6.80;81.50;;;;;;4963049;28;118052;-84
2020/12/12 04:26:24;;;;;;;;;;;6.80;82.00;;;;;;4934724;28;117789;-84
2020/12/12 04:28:50;;;;;;;;;;;6.80;81.50;;;;;;4969212;28;117269;-84
2020/12/12 04:31:19;;;;;;;;;;;6.80;81.50;;;;;;4952540;28;118871;-84
2020/12/12 04:33:47;;;;;;;;;;;6.80;81.50;;;;;;4953322;28;117837;-84
2020/12/12 04:36:17;;;;;;;;;;;6.80;81.50;;;;;;4968701;28;117629;-84
2020/12/12 04:38:44;;;;;;;;;;;6.80;81.60;;;;;;4954708;28;118076;-84
2020/12/12 04:41:14;;;;;;;;;;;6.80;81.50;;;;;;4952827;28;117903;-84
2020/12/12 04:43:44;;;;;;;;;;;6.80;81.40;;;;;;4969506;28;117636;-84
2020/12/12 04:46:16;;;;;;;;;;;6.80;81.30;;;;;;4971003;28;117734;-84
2020/12/12 04:48:45;;;;;;;;;;;6.80;81.50;;;;;;4953518;28;118683;-83
2020/12/12 04:51:14;;;;;;;;;;;6.80;81.50;;;;;;4968719;28;118738;-84
2020/12/12 04:53:43;;;;;;;;;;;6.80;81.50;;;;;;4985161;28;117677;-84
2020/12/12 04:56:09;;;;;;;;;;;6.80;81.40;;;;;;4953658;28;117627;-84
2020/12/12 04:58:38;;;;;;;;;;;6.80;81.50;;;;;;4969522;28;117540;-84
2020/12/12 05:01:06;;;;;;;;;;;6.80;81.50;;;;;;4952900;28;119645;-84
2020/12/12 05:03:34;;;;;;;;;;;6.80;81.30;;;;;;4968523;28;117562;-84
2020/12/12 05:06:02;;;;;;;;;;;6.80;81.40;;;;;;4953658;28;117436;-84
2020/12/12 05:08:28;;;;;;;;;;;6.80;81.40;;;;;;4970118;28;117309;-83
2020/12/12 05:10:57;;;;;;;;;;;6.80;81.30;;;;;;4952317;28;120347;-83
2020/12/12 05:13:23;;;;;;;;;;;6.80;81.40;;;;;;4952594;28;118793;-83
2020/12/12 05:15:51;;;;;;;;;;;6.80;81.50;;;;;;4953455;28;117545;-84
2020/12/12 05:18:19;;;;;;;;;;;6.80;81.40;;;;;;4968515;28;117328;-84
2020/12/12 05:20:51;;;;;;;;;;;6.80;81.40;;;;;;4952768;28;117607;-84
2020/12/12 05:23:20;;;;;;;;;;;6.80;81.50;;;;;;4968023;28;118462;-84
2020/12/12 05:25:46;;;;;;;;;;;6.80;81.60;;;;;;4953191;28;117306;-84
2020/12/12 05:28:14;;;;;;;;;;;6.80;81.50;;;;;;4953153;28;117480;-84
2020/12/12 05:30:45;;;;;;;;;;;6.80;81.60;;;;;;4965301;28;118855;-84
2020/12/12 05:33:32;;;;;;;;;;;6.80;81.50;;;;;;4952461;28;118095;-84
2020/12/12 05:36:01;;;;;;;;;;;6.80;81.40;;;;;;4969512;28;117554;-84
2020/12/12 05:38:29;;;;;;;;;;;6.80;81.40;;;;;;4985761;28;117233;-84
2020/12/12 05:40:56;;;;;;;;;;;6.80;81.50;;;;;;4952336;28;117826;-84
2020/12/12 05:43:36;;;;;;;;;;;6.80;81.50;;;;;;4966728;28;119696;-84
2020/12/12 05:46:04;;;;;;;;;;;6.80;81.30;;;;;;4984412;28;117823;-84
2020/12/12 05:48:33;;;;;;;;;;;6.80;81.40;;;;;;4953145;28;118193;-84
2020/12/12 05:51:02;;;;;;;;;;;6.90;81.60;;;;;;4968430;28;118404;-84
2020/12/12 05:53:29;;;;;;;;;;;6.80;81.40;;;;;;4951822;28;118415;-84
2020/12/12 05:55:55;;;;;;;;;;;6.80;81.40;;;;;;4952334;28;117332;-84
2020/12/12 05:58:21;;;;;;;;;;;6.80;81.40;;;;;;4952733;28;117826;-83
2020/12/12 06:00:48;;;;;;;;;;;6.80;81.40;;;;;;4950658;28;117566;-83
2020/12/12 06:03:23;;;;;;;;;;;6.80;81.20;;;;;;4951637;28;120200;-83
2020/12/12 06:06:02;;;;;;;;;;;6.80;81.40;;;;;;4953036;28;117352;-83
2020/12/12 06:08:42;;;;;;;;;;;6.80;81.30;;;;;;4967795;28;117810;-83
2020/12/12 06:11:08;;;;;;;;;;;6.80;82.10;;;;;;4951321;28;118661;-83
2020/12/12 06:13:42;;;;;;;;;;;6.80;81.50;;;;;;4949194;28;118033;-83
2020/12/12 06:16:09;;;;;;;;;;;6.80;81.30;;;;;;4967522;28;117525;-83
2020/12/12 06:18:54;;;;;;;;;;;6.80;81.30;;;;;;4951837;28;117956;-83
2020/12/12 06:21:25;;;;;;;;;;;6.80;81.60;;;;;;4967555;28;118798;-83
2020/12/12 06:23:52;;;;;;;;;;;6.80;81.40;;;;;;4958521;28;118089;-83
2020/12/12 06:26:21;;;;;;;;;;;6.80;81.40;;;;;;4952454;28;117541;-84
2020/12/12 06:28:52;;;;;;;;;;;6.80;81.40;;;;;;4952697;28;117724;-83
2020/12/12 06:31:38;;;;;;;;;;;;;;;;;;;;;
2020/12/12 06:34:04;;;;;;;;;;;6.80;81.40;;;;;;4967706;28;147206;-83
2020/12/12 06:36:41;;;;;;;;;;;6.80;81.50;;;;;;4968943;28;117551;-84
2020/12/12 06:39:19;;;;;;;;;;;6.80;81.40;;;;;;4953385;28;117480;-84
2020/12/12 06:41:48;;;;;;;;;;;6.80;81.40;;;;;;4967303;28;119741;-84
2020/12/12 06:44:32;;;;;;;;;;;6.80;81.50;;;;;;4951421;28;117683;-84
2020/12/12 06:47:01;;;;;;;;;;;6.80;81.30;;;;;;4968101;28;117729;-84
2020/12/12 06:49:39;;;;;;;;;;;6.80;81.30;;;;;;4947603;28;117682;-84
2020/12/12 06:52:15;;;;;;;;;;;6.80;81.30;;;;;;4964585;28;118727;-84
2020/12/12 06:55:02;;;;;;;;;;;6.80;81.30;;;;;;4968035;28;118042;-84
2020/12/12 06:57:33;;;;;;;;;;;6.80;81.30;;;;;;4967980;28;117479;-84
2020/12/12 07:00:02;;;;;;;;;;;6.80;81.30;;;;;;4952017;28;117430;-84
2020/12/12 07:02:30;;;;;;;;;;;6.80;81.30;;;;;;4966313;28;117812;-84
2020/12/12 07:04:56;;;;;;;;;;;6.80;81.40;;;;;;4950805;28;120531;-84
2020/12/12 07:07:25;;;;;;;;;;;6.80;81.40;;;;;;4951357;28;117854;-84
2020/12/12 07:09:56;;;;;;;;;;;6.80;81.40;;;;;;4951945;28;117375;-84
2020/12/12 07:12:34;;;;;;;;;;;6.80;81.40;;;;;;4966906;28;119420;-84
2020/12/12 07:15:06;;;;;;;;;;;6.80;81.30;;;;;;4967101;28;118215;-84
2020/12/12 07:17:32;;;;;;;;;;;6.80;81.30;;;;;;4967687;28;117484;-84
2020/12/12 07:19:59;;;;;;;;;;;6.80;81.20;;;;;;4967122;28;117778;-84
2020/12/12 07:22:34;;;;;;;;;;;6.80;81.20;;;;;;4966068;28;118651;-84
2020/12/12 07:25:05;;;;;;;;;;;6.80;81.30;;;;;;4966386;28;118870;-84
2020/12/12 07:27:32;;;;;;;;;;;6.80;81.30;;;;;;4962980;28;117776;-84
2020/12/12 07:30:00;;;;;;;;;;;6.80;81.30;;;;;;4967598;28;117355;-84
2020/12/12 07:32:27;;;;;;;;;;;6.80;81.30;;;;;;4951181;28;119489;-84
2020/12/12 07:35:09;;;;;;;;;;;6.80;81.30;;;;;;4966030;28;118150;-84
2020/12/12 07:37:36;;;;;;;;;;;6.80;81.30;;;;;;4951589;28;117241;-84
2020/12/12 07:40:02;;;;;;;;;;;6.80;81.30;;;;;;4951283;28;117779;-84
2020/12/12 07:42:31;;;;;;;;;;;6.80;81.30;;;;;;4965957;28;118758;-84
2020/12/12 07:45:08;;;;;;;;;;;6.80;81.30;;;;;;4950935;28;118987;-84
2020/12/12 07:47:38;;;;;;;;;;;6.90;81.30;;;;;;4952471;28;117553;-84
2020/12/12 07:50:04;;;;;;;;;;;6.80;81.30;;;;;;4949672;28;117559;-84
2020/12/12 07:52:30;;;;;;;;;;;6.90;81.30;;;;;;4949971;28;120442;-84
2020/12/12 07:57:23;;;;;;;;;;;6.90;81.30;;;;;;4967489;28;117647;-84
2020/12/12 07:59:49;;;;;;;;;;;6.90;81.30;;;;;;4951138;28;117348;-84
2020/12/12 08:02:21;;;;;;;;;;;6.90;81.30;;;;;;4953158;28;120998;-83
2020/12/12 08:04:49;;;;;;;;;;;6.90;81.30;;;;;;4953472;28;119769;-88
2020/12/12 08:07:19;;;;;;;;;;;6.80;81.30;;;;;;4954699;28;117315;-88
2020/12/12 08:10:13;;;;;;;;;;;6.80;81.70;;;;;;4954270;28;117595;-88
2020/12/12 08:12:54;;;;;;;;;;;;;;;;;;;;;
2020/12/12 08:15:25;;;;;;;;;;;6.80;81.30;;;;;;4986393;28;145756;-89
2020/12/12 08:17:54;;;;;;;;;;;6.80;81.40;;;;;;4988275;28;117273;-89
2020/12/12 08:20:27;;;;;;;;;;;6.80;81.30;;;;;;4953962;28;117743;-88
2020/12/12 08:22:53;;;;;;;;;;;6.80;81.30;;;;;;4954254;28;117773;-88
2020/12/12 08:25:20;;;;;;;;;;;6.80;81.30;;;;;;4952902;28;117281;-88
2020/12/12 08:27:51;;;;;;;;;;;6.80;81.20;;;;;;4970542;28;117518;-88
2020/12/12 08:30:18;;;;;;;;;;;6.80;81.20;;;;;;4954500;28;117673;-88
2020/12/12 08:32:51;;;;;;;;;;;6.80;81.20;;;;;;4952886;28;119692;-88
2020/12/12 08:35:18;;;;;;;;;;;6.90;81.20;;;;;;4953990;28;117821;-88
2020/12/12 08:38:12;;;;;;;;;;;6.80;81.10;;;;;;4954193;28;117814;-88
2020/12/12 08:40:45;;;;;;;;;;;6.80;81.20;;;;;;4966541;28;117896;-88
2020/12/12 08:43:20;;;;;;;;;;;6.80;81.10;;;;;;4986739;28;118786;-88
2020/12/12 08:46:00;;;;;;;;;;;6.90;81.00;;;;;;4952350;28;117985;-88
2020/12/12 08:48:33;;;;;;;;;;;6.80;81.00;;;;;;4968171;28;117594;-88
2020/12/12 08:51:07;;;;;;;;;;;6.90;81.00;;;;;;4954588;28;117719;-88
2020/12/12 08:53:43;;;;;;;;;;;6.80;81.00;;;;;;4970479;28;117776;-88
2020/12/12 08:56:15;;;;;;;;;;;6.90;81.10;;;;;;4953272;28;118863;-88
2020/12/12 08:59:10;;;;;;;;;;;6.80;81.00;;;;;;4952528;28;117699;-88
2020/12/12 09:01:41;;;;;;;;;;;6.80;80.90;;;;;;4970777;28;117851;-88
2020/12/12 09:04:13;;;;;;;;;;;6.80;81.00;;;;;;4952857;28;117457;-88
2020/12/12 09:06:45;;;;;;;;;;;6.90;81.00;;;;;;4968226;28;118708;-88
2020/12/12 09:09:15;;;;;;;;;;;6.90;80.90;;;;;;4969622;28;116772;-88
2020/12/12 09:12:00;;;;;;;;;;;6.80;80.90;;;;;;4953309;28;117855;-88
2020/12/12 09:14:38;;;;;;;;;;;6.80;81.00;;;;;;4954103;28;117410;-88
2020/12/12 09:17:09;;;;;;;;;;;6.80;81.00;;;;;;4952881;28;118822;-88
2020/12/12 09:19:36;;;;;;;;;;;6.90;80.90;;;;;;4952518;28;117726;-88
2020/12/12 09:22:02;;;;;;;;;;;6.90;80.90;;;;;;4949972;28;117795;-88
2020/12/12 09:24:29;;;;;;;;;;;6.80;80.80;;;;;;4969242;28;119704;-88
2020/12/12 09:27:01;;;;;;;;;;;6.90;80.90;;;;;;4968896;28;117941;-88
2020/12/12 09:29:32;;;;;;;;;;;6.90;80.90;;;;;;4968624;28;117400;-88
2020/12/12 09:32:04;;;;;;;;;;;6.90;80.90;;;;;;4968210;28;117598;-88
2020/12/12 09:34:37;;;;;;;;;;;6.90;80.90;;;;;;4952215;28;118888;-88
2020/12/12 09:37:05;;;;;;;;;;;6.90;80.90;;;;;;4954528;28;117475;-89
2020/12/12 09:39:44;;;;;;;;;;;6.90;80.90;;;;;;4969374;28;117522;-88
2020/12/12 09:42:10;;;;;;;;;;;6.90;80.80;;;;;;4953503;28;117852;-88
2020/12/12 09:44:36;;;;;;;;;;;6.90;80.80;;;;;;4951945;28;118519;-88
2020/12/12 09:47:05;;;;;;;;;;;6.90;80.80;;;;;;4951412;28;117676;-88
2020/12/12 09:49:31;;;;;;;;;;;6.90;80.80;;;;;;4952981;28;117416;-88
2020/12/12 09:52:02;;;;;;;;;;;6.90;80.80;;;;;;4952497;28;117856;-88
2020/12/12 09:54:36;;;;;;;;;;;6.90;80.80;;;;;;4952196;28;119595;-88
2020/12/12 09:57:02;;;;;;;;;;;6.90;80.70;;;;;;4967576;28;117766;-88
2020/12/12 09:59:37;;;;;;;;;;;6.90;80.70;;;;;;4952408;28;117625;-88
2020/12/12 10:02:10;;;;;;;;;;;6.90;80.70;;;;;;4967463;28;117855;-88
2020/12/12 10:04:38;;;;;;;;;;;6.90;80.70;;;;;;4950863;28;118746;-88
2020/12/12 10:07:14;;;;;;;;;;;6.90;80.70;;;;;;4952030;28;118116;-88
2020/12/12 10:09:43;;;;;;;;;;;6.90;80.70;;;;;;4953107;28;117729;-88
2020/12/12 10:12:09;;;;;;;;;;;6.90;80.70;;;;;;4953194;28;117664;-88
2020/12/12 10:14:37;;;;;;;;;;;6.90;80.70;;;;;;4950700;28;117386;-89
2020/12/12 10:17:03;;;;;;;;;;;6.90;80.60;;;;;;4950998;28;118558;-89
2020/12/12 10:19:30;;;;;;;;;;;6.90;80.60;;;;;;4951771;28;117508;-88
2020/12/12 10:21:57;;;;;;;;;;;6.90;80.60;;;;;;4951460;28;116902;-89
2020/12/12 10:24:26;;;;;;;;;;;6.90;80.60;;;;;;4959755;28;119492;-88
2020/12/12 10:27:15;;;;;;;;;;;6.90;80.60;;;;;;4951732;28;117628;-88
2020/12/12 10:29:43;;;;;;;;;;;6.90;81.20;;;;;;4968134;28;117733;-88
2020/12/12 10:32:19;;;;;;;;;;;6.90;80.60;;;;;;4969188;28;117448;-88
2020/12/12 10:34:57;;;;;;;;;;;6.90;80.60;;;;;;4967586;28;117343;-88
2020/12/12 10:37:25;;;;;;;;;;;6.90;80.60;;;;;;4952003;28;118102;-88
2020/12/12 10:40:01;;;;;;;;;;;6.90;80.60;;;;;;4967536;28;117498;-89
2020/12/12 10:42:30;;;;;;;;;;;6.90;80.60;;;;;;4953972;28;117821;-89
2020/12/12 10:45:00;;;;;;;;;;;6.90;80.50;;;;;;4967594;28;117617;-89
2020/12/12 10:47:38;;;;;;;;;;;6.90;80.50;;;;;;4964276;28;117766;-89
2020/12/12 10:50:09;;;;;;;;;;;6.90;80.50;;;;;;4968301;28;117329;-88
2020/12/12 10:52:59;;;;;;;;;;;6.90;80.50;;;;;;4984375;28;117297;-88
2020/12/12 10:55:26;;;;;;;;;;;6.90;80.60;;;;;;4951486;28;117502;-88
2020/12/12 10:57:56;;;;;;;;;;;6.90;81.20;;;;;;4950424;28;117750;-88
2020/12/12 11:00:30;;;;;;;;;;;6.90;80.50;;;;;;4951697;28;117876;-88
2020/12/12 11:02:56;;;;;;;;;;;6.90;80.60;;;;;;4968389;28;117863;-89
2020/12/12 11:05:40;;;;;;;;;;;6.90;80.60;;;;;;4968235;28;138055;-88
2020/12/12 11:08:24;;;;;;;;;;;6.90;80.50;;;;;;4984723;28;117463;-87
2020/12/12 11:10:56;;;;;;;;;;;6.90;80.50;;;;;;4951990;28;117512;-89
2020/12/12 11:13:26;;;;;;;;;;;6.90;80.50;;;;;;4967460;28;117821;-89
2020/12/12 11:15:55;;;;;;;;;;;6.90;80.50;;;;;;4967390;28;117557;-88
2020/12/12 11:18:28;;;;;;;;;;;6.90;80.50;;;;;;4950178;28;117436;-88
2020/12/12 11:20:56;;;;;;;;;;;6.90;80.50;;;;;;4968128;28;117789;-87
2020/12/12 11:23:22;;;;;;;;;;;6.90;80.50;;;;;;4951789;28;117901;-87
2020/12/12 11:25:48;;;;;;;;;;;6.90;80.40;;;;;;4950673;28;117844;-86
2020/12/12 11:28:13;;;;;;;;;;;6.90;80.50;;;;;;4950146;28;118185;-87
2020/12/12 11:30:39;;;;;;;;;;;6.90;80.50;;;;;;4951580;28;117566;-87
2020/12/12 11:33:06;;;;;;;;;;;6.90;80.60;;;;;;4968319;28;117510;-87
2020/12/12 11:35:43;;;;;;;;;;;6.90;80.60;;;;;;4949744;28;119469;-86
2020/12/12 11:48:20;;;;;;;;;;;6.90;80.50;;;;;;4958485;28;117851;-87
2020/12/12 11:50:46;;;;;;;;;;;6.90;80.50;;;;;;4951069;28;117390;-86
2020/12/12 11:53:12;;;;;;;;;;;6.90;80.50;;;;;;4968154;28;117696;-86
2020/12/12 11:55:37;;;;;;;;;;;7.00;80.50;;;;;;4950430;28;117746;-87
2020/12/12 11:58:03;;;;;;;;;;;7.00;80.50;;;;;;4950029;28;117961;-87
2020/12/12 12:00:43;;;;;;;;;;;6.90;80.50;;;;;;4950840;28;117618;-87
2020/12/12 12:03:13;;;;;;;;;;;6.90;80.40;;;;;;4950923;28;117308;-87
2020/12/12 12:05:47;;;;;;;;;;;6.90;80.50;;;;;;4949866;28;119741;-87
2020/12/12 12:08:37;;;;;;;;;;;6.90;80.50;;;;;;4950200;28;119817;-87
2020/12/12 12:13:44;;;;;;;;;;;6.90;80.50;;;;;;4967014;28;117768;-86
2020/12/12 12:16:16;;;;;;;;;;;6.90;80.50;;;;;;4949910;28;119467;-86
2020/12/12 12:18:41;;;;;;;;;;;6.90;80.50;;;;;;4949548;28;119023;-86
2020/12/12 12:21:07;;;;;;;;;;;6.90;80.50;;;;;;4950654;28;117376;-86
2020/12/12 12:23:34;;;;;;;;;;;6.90;80.40;;;;;;4950894;28;117328;-86
2020/12/12 12:25:59;;;;;;;;;;;7.00;80.50;;;;;;4949374;28;117633;-86
2020/12/12 12:28:26;;;;;;;;;;;6.90;80.50;;;;;;4949044;28;117676;-86
2020/12/12 12:30:51;;;;;;;;;;;6.90;80.50;;;;;;4950336;28;117448;-86
2020/12/12 12:33:17;;;;;;;;;;;6.90;80.50;;;;;;4950963;28;117487;-86
2020/12/12 12:35:42;;;;;;;;;;;6.90;81.00;;;;;;4949538;28;120577;-86
2020/12/12 12:38:08;;;;;;;;;;;6.90;80.50;;;;;;4949536;28;120429;-86
2020/12/12 12:40:34;;;;;;;;;;;7.00;80.50;;;;;;4950428;28;117340;-86
2020/12/12 12:42:59;;;;;;;;;;;6.90;80.50;;;;;;4950860;28;117404;-87
2020/12/12 12:45:25;;;;;;;;;;;6.90;80.40;;;;;;4949689;28;119246;-86
2020/12/12 12:47:50;;;;;;;;;;;7.00;80.50;;;;;;4952376;28;119616;-84
2020/12/12 12:50:16;;;;;;;;;;;7.00;80.50;;;;;;4953260;28;117587;-84
2020/12/12 12:52:42;;;;;;;;;;;7.00;80.50;;;;;;4953436;28;117269;-84
2020/12/12 12:55:09;;;;;;;;;;;7.00;80.50;;;;;;4952802;28;118437;-84
2020/12/12 12:57:35;;;;;;;;;;;7.00;80.50;;;;;;4953243;28;117782;-85
2020/12/12 13:00:00;;;;;;;;;;;7.00;80.50;;;;;;4953840;28;117462;-85
2020/12/12 13:02:26;;;;;;;;;;;7.00;80.50;;;;;;4954689;28;117950;-85
2020/12/12 13:04:51;;;;;;;;;;;7.00;80.50;;;;;;4969821;28;117380;-85
2020/12/12 13:07:17;;;;;;;;;;;7.00;80.50;;;;;;4953348;28;117508;-85
2020/12/12 13:09:42;;;;;;;;;;;7.00;80.60;;;;;;4954214;28;117471;-85
2020/12/12 13:12:08;;;;;;;;;;;7.00;80.50;;;;;;4954239;28;117954;-86
2020/12/12 13:14:33;;;;;;;;;;;7.00;80.60;;;;;;4952355;28;118317;-86
2020/12/12 13:16:59;;;;;;;;;;;7.00;80.50;;;;;;4951480;28;118760;-85
2020/12/12 13:19:29;;;;;;;;;;;7.00;80.50;;;;;;4952861;28;117831;-86
2020/12/12 13:22:03;;;;;;;;;;;7.00;80.60;;;;;;4954179;28;117475;-86
2020/12/12 13:24:30;;;;;;;;;;;7.00;80.60;;;;;;4953381;28;119648;-86
2020/12/12 13:26:56;;;;;;;;;;;7.00;80.50;;;;;;4952485;28;117544;-86
2020/12/12 13:32:06;;;;;;;;;;;7.00;80.50;;;;;;4969676;28;117453;-85
2020/12/12 13:34:32;;;;;;;;;;;7.00;80.50;;;;;;4952232;28;117555;-86
2020/12/12 13:36:58;;;;;;;;;;;7.00;80.50;;;;;;4952234;28;119936;-86
2020/12/12 13:39:23;;;;;;;;;;;7.00;81.10;;;;;;4952769;28;117652;-86
2020/12/12 13:41:49;;;;;;;;;;;7.00;80.50;;;;;;4952593;28;117930;-86
2020/12/12 13:44:14;;;;;;;;;;;7.00;80.50;;;;;;4951964;28;120506;-86
2020/12/12 13:46:40;;;;;;;;;;;7.00;80.60;;;;;;4952050;28;117286;-86
2020/12/12 13:49:05;;;;;;;;;;;7.00;80.50;;;;;;4952447;28;117371;-86
2020/12/12 13:51:32;;;;;;;;;;;7.00;80.50;;;;;;4952963;28;117291;-86
2020/12/12 13:53:58;;;;;;;;;;;7.00;80.50;;;;;;4952132;28;120137;-86
2020/12/12 13:56:23;;;;;;;;;;;7.00;80.50;;;;;;4951754;28;117694;-86
2020/12/12 13:58:49;;;;;;;;;;;7.00;80.60;;;;;;4951814;28;117435;-86
2020/12/12 14:01:16;;;;;;;;;;;7.00;80.50;;;;;;4952753;28;117882;-85
2020/12/12 14:03:42;;;;;;;;;;;7.00;80.60;;;;;;4951865;28;118735;-85
2020/12/12 14:06:08;;;;;;;;;;;7.00;80.60;;;;;;4951143;28;118819;-85
2020/12/12 14:09:06;;;;;;;;;;;7.00;80.50;;;;;;4952106;28;117268;-85
2020/12/12 14:18:46;;;;;;;;;;;7.00;80.50;;;;;;4973795;28;117880;-85
2020/12/12 14:23:03;;;;;;;;;;;7.00;80.50;;;;;;4969039;28;117385;-85
2020/12/12 14:25:27;;;;;;;;;;;7.00;80.50;;;;;;4970535;28;117464;-86
2020/12/12 14:30:40;;;;;;;;;;;7.00;80.50;;;;;;4968846;28;117555;-86
2020/12/12 14:33:06;;;;;;;;;;;7.00;80.50;;;;;;4952584;28;117456;-86
2020/12/12 14:35:32;;;;;;;;;;;7.00;80.50;;;;;;4951010;28;117590;-86
2020/12/12 14:37:58;;;;;;;;;;;7.00;80.50;;;;;;4951031;28;117542;-86
2020/12/12 14:40:23;;;;;;;;;;;7.00;80.40;;;;;;4951769;28;117610;-86
2020/12/12 14:42:49;;;;;;;;;;;7.00;80.50;;;;;;4952348;28;117371;-86
2020/12/12 14:45:17;;;;;;;;;;;7.00;80.40;;;;;;4950842;28;119716;-86
2020/12/12 14:47:43;;;;;;;;;;;7.00;80.50;;;;;;4951355;28;117401;-86
2020/12/12 14:50:08;;;;;;;;;;;7.00;80.50;;;;;;4951727;28;117410;-86
2020/12/12 14:52:34;;;;;;;;;;;7.00;80.50;;;;;;4952206;28;117460;-86
2020/12/12 14:55:00;;;;;;;;;;;7.00;80.50;;;;;;4951003;28;120553;-86
2020/12/12 14:57:26;;;;;;;;;;;7.00;80.50;;;;;;4950318;28;118617;-86
2020/12/12 14:59:55;;;;;;;;;;;7.00;80.50;;;;;;4951515;28;117551;-86
2020/12/12 15:02:20;;;;;;;;;;;7.00;80.50;;;;;;4968458;28;117793;-86
2020/12/12 15:04:46;;;;;;;;;;;7.10;80.60;;;;;;4950943;28;117507;-86
2020/12/12 15:07:12;;;;;;;;;;;7.00;80.40;;;;;;4950605;28;117520;-86
2020/12/12 15:09:37;;;;;;;;;;;7.00;80.50;;;;;;4951219;28;118689;-86